createdAt,value
2022-12-19T00:00:16.815Z,80.17
2022-12-19T00:02:44.798Z,80.42
2022-12-19T00:05:14.258Z,80.06
2022-12-19T00:07:41.494Z,80.32
2022-12-19T00:10:09.494Z,79.93
2022-12-19T00:12:37.260Z,80.47
2022-12-19T00:15:05.289Z,80.62
2022-12-19T00:17:33.481Z,80.65
2022-12-19T00:20:04.472Z,80.20
2022-12-19T00:22:31.836Z,80.53
2022-12-19T00:24:59.085Z,80.43
2022-12-19T00:27:26.831Z,80.96
2022-12-19T00:29:54.502Z,80.99
2022-12-19T00:32:22.170Z,80.54
2022-12-19T00:34:49.505Z,80.00
2022-12-19T00:37:17.117Z,79.90
2022-12-19T00:39:44.508Z,79.97
2022-12-19T00:42:12.509Z,80.19
2022-12-19T00:44:40.040Z,80.56
2022-12-19T00:47:07.596Z,80.30
2022-12-19T00:49:35.435Z,80.39
2022-12-19T00:52:05.261Z,81.13
2022-12-19T00:54:32.584Z,80.81
2022-12-19T00:57:00.714Z,80.38
2022-12-19T00:59:27.852Z,80.15
2022-12-19T01:01:55.588Z,79.92
2022-12-19T01:04:29.111Z,79.75
2022-12-19T01:06:58.087Z,79.72
2022-12-19T01:09:31.515Z,79.14
2022-12-19T01:12:17.721Z,79.22
2022-12-19T01:14:45.292Z,78.71
2022-12-19T01:17:13.096Z,78.91
2022-12-19T01:19:44.297Z,79.18
2022-12-19T01:22:15.064Z,78.59
2022-12-19T01:24:43.120Z,78.66
2022-12-19T01:27:10.500Z,78.15
2022-12-19T01:29:51.167Z,78.91
2022-12-19T01:32:21.622Z,80.76
2022-12-19T01:34:48.997Z,80.39
2022-12-19T01:37:16.733Z,81.55
2022-12-19T01:39:44.971Z,81.41
2022-12-19T01:42:23.522Z,82.47
2022-12-19T01:45:13.417Z,82.25
2022-12-19T01:47:54.740Z,82.12
2022-12-19T01:50:51.433Z,82.45
2022-12-19T01:53:34.031Z,82.46
2022-12-19T01:56:09.069Z,82.59
2022-12-19T01:58:38.085Z,83.43
2022-12-19T02:01:06.353Z,83.79
2022-12-19T02:03:35.670Z,83.92
2022-12-19T02:06:05.661Z,85.11
2022-12-19T02:08:33.018Z,85.10
2022-12-19T02:11:03.037Z,85.27
2022-12-19T02:13:30.624Z,85.12
2022-12-19T02:16:22.657Z,85.01
2022-12-19T02:19:17.907Z,85.50
2022-12-19T02:21:49.401Z,85.67
2022-12-19T02:24:20.875Z,86.07
2022-12-19T02:27:02.048Z,86.01
2022-12-19T02:29:56.498Z,86.11
2022-12-19T02:33:01.566Z,85.77
2022-12-19T02:35:36.889Z,85.45
2022-12-19T02:38:16.702Z,85.48
2022-12-19T02:41:01.314Z,84.76
2022-12-19T02:43:31.041Z,84.53
2022-12-19T02:45:59.508Z,84.01
2022-12-19T02:48:27.761Z,83.80
2022-12-19T02:50:55.207Z,82.98
2022-12-19T02:53:23.928Z,82.52
2022-12-19T02:56:14.664Z,82.10
2022-12-19T02:59:00.729Z,81.83
2022-12-19T03:01:58.476Z,81.76
2022-12-19T03:04:39.751Z,81.82
2022-12-19T03:07:17.240Z,81.68
2022-12-19T03:09:59.342Z,82.15
2022-12-19T03:12:35.561Z,82.65
2022-12-19T03:15:03.948Z,82.32
2022-12-19T03:17:36.040Z,82.67
2022-12-19T03:20:11.586Z,82.18
2022-12-19T03:22:39.354Z,82.31
2022-12-19T03:25:07.614Z,82.45
2022-12-19T03:27:36.098Z,82.67
2022-12-19T03:30:12.775Z,82.84
2022-12-19T03:32:42.592Z,83.26
2022-12-19T03:35:16.363Z,82.74
2022-12-19T03:37:45.164Z,82.77
2022-12-19T03:40:19.800Z,82.50
2022-12-19T03:43:07.610Z,82.35
2022-12-19T03:45:40.920Z,82.32
2022-12-19T03:48:15.891Z,82.35
2022-12-19T03:50:53.809Z,82.46
2022-12-19T03:53:45.997Z,82.24
2022-12-19T03:56:38.901Z,82.77
2022-12-19T03:59:28.814Z,82.68
2022-12-19T04:01:57.727Z,82.75
2022-12-19T04:04:28.018Z,82.97
2022-12-19T04:06:55.692Z,82.36
2022-12-19T04:09:24.284Z,82.46
2022-12-19T04:11:55.138Z,83.09
2022-12-19T04:14:31.749Z,82.92
2022-12-19T04:17:33.392Z,83.24
2022-12-19T04:20:09.391Z,83.47
2022-12-19T04:22:44.031Z,83.10
2022-12-19T04:25:15.404Z,83.12
2022-12-19T04:27:46.788Z,83.37
2022-12-19T04:30:17.031Z,83.20
2022-12-19T04:32:45.055Z,83.38
2022-12-19T04:35:12.836Z,82.98
2022-12-19T04:37:40.639Z,82.86
2022-12-19T04:40:09.045Z,83.60
2022-12-19T04:42:37.048Z,83.29
2022-12-19T04:45:06.061Z,83.42
2022-12-19T04:47:33.632Z,83.38
2022-12-19T04:50:01.400Z,83.74
2022-12-19T04:52:28.844Z,83.58
2022-12-19T04:54:56.055Z,83.60
2022-12-19T04:57:23.753Z,83.64
2022-12-19T04:59:51.056Z,83.23
2022-12-19T05:02:18.957Z,83.56
2022-12-19T05:04:46.835Z,83.96
2022-12-19T05:07:14.652Z,83.97
2022-12-19T05:09:42.014Z,84.05
2022-12-19T05:12:10.516Z,84.54
2022-12-19T05:14:38.706Z,84.39
2022-12-19T05:17:06.418Z,84.34
2022-12-19T05:19:33.856Z,84.33
2022-12-19T05:22:01.067Z,84.46
2022-12-19T05:24:28.853Z,84.75
2022-12-19T05:26:56.333Z,84.53
2022-12-19T05:29:23.715Z,84.41
2022-12-19T05:31:51.074Z,84.69
2022-12-19T05:34:18.650Z,83.86
2022-12-19T05:36:46.803Z,84.45
2022-12-19T05:39:14.571Z,84.51
2022-12-19T05:41:41.968Z,84.20
2022-12-19T05:44:09.910Z,84.23
2022-12-19T05:46:37.718Z,83.81
2022-12-19T05:49:05.052Z,84.42
2022-12-19T05:51:32.863Z,84.51
2022-12-19T05:54:03.188Z,83.75
2022-12-19T05:56:31.086Z,83.44
2022-12-19T05:58:58.281Z,83.93
2022-12-19T06:01:27.977Z,84.18
2022-12-19T06:03:55.715Z,83.82
2022-12-19T06:06:25.092Z,83.65
2022-12-19T06:08:56.046Z,83.97
2022-12-19T06:11:23.965Z,83.53
2022-12-19T06:13:53.982Z,83.48
2022-12-19T06:16:22.046Z,83.69
2022-12-19T06:18:49.079Z,83.32
2022-12-19T06:21:21.859Z,83.36
2022-12-19T06:23:49.199Z,83.22
2022-12-19T06:26:20.093Z,83.22
2022-12-19T06:28:48.876Z,83.29
2022-12-19T06:31:16.932Z,83.13
2022-12-19T06:33:44.317Z,83.07
2022-12-19T06:36:23.911Z,83.43
2022-12-19T06:38:52.011Z,84.32
2022-12-19T06:41:38.848Z,83.34
2022-12-19T06:44:09.049Z,83.74
2022-12-19T06:46:37.521Z,85.31
2022-12-19T06:49:05.091Z,85.83
2022-12-19T06:51:32.893Z,81.45
2022-12-19T07:00:55.252Z,82.55
2022-12-19T07:03:26.363Z,82.40
2022-12-19T07:05:54.480Z,82.26
2022-12-19T07:08:21.456Z,82.98
2022-12-19T07:10:48.337Z,83.47
2022-12-19T07:13:15.474Z,83.80
2022-12-19T07:15:42.404Z,83.95
2022-12-19T07:18:09.864Z,84.32
2022-12-19T07:20:41.827Z,84.76
2022-12-19T07:23:14.688Z,85.23
2022-12-19T07:25:42.081Z,85.49
2022-12-19T07:28:09.083Z,85.08
2022-12-19T07:30:36.077Z,85.77
2022-12-19T07:33:02.945Z,85.56
2022-12-19T07:35:30.003Z,85.35
2022-12-19T07:38:02.974Z,85.64
2022-12-19T07:40:30.042Z,85.61
2022-12-19T07:43:00.801Z,85.26
2022-12-19T07:45:28.198Z,84.98
2022-12-19T07:47:55.029Z,85.22
2022-12-19T07:50:22.437Z,84.87
2022-12-19T07:52:49.195Z,84.25
2022-12-19T07:55:16.515Z,84.64
2022-12-19T07:57:47.069Z,84.68
2022-12-19T08:00:15.339Z,82.45
2022-12-19T08:02:42.947Z,81.23
2022-12-19T08:05:11.712Z,79.35
2022-12-19T08:07:38.701Z,77.79
2022-12-19T08:10:07.025Z,76.60
2022-12-19T08:12:34.463Z,77.00
2022-12-19T08:15:01.397Z,75.19
2022-12-19T08:17:28.525Z,75.68
2022-12-19T08:19:55.822Z,74.85
2022-12-19T08:22:23.311Z,75.51
2022-12-19T08:24:50.553Z,75.02
2022-12-19T08:27:17.758Z,74.82
2022-12-19T08:29:44.891Z,74.66
2022-12-19T08:32:17.058Z,74.67
2022-12-19T08:34:47.526Z,74.04
2022-12-19T08:37:14.656Z,73.59
2022-12-19T08:39:41.499Z,73.61
2022-12-19T08:42:08.369Z,73.65
2022-12-19T08:44:35.862Z,72.66
2022-12-19T08:47:04.726Z,71.45
2022-12-19T08:49:31.654Z,72.36
2022-12-19T08:52:01.990Z,71.63
2022-12-19T08:54:28.859Z,70.40
2022-12-19T08:56:56.841Z,70.47
2022-12-19T08:59:30.734Z,70.89
2022-12-19T09:02:03.457Z,71.00
2022-12-19T09:05:57.342Z,71.13
2022-12-19T09:07:22.345Z,71.07
2022-12-19T09:09:49.106Z,70.77
2022-12-19T09:12:16.822Z,71.79
2022-12-19T09:14:44.474Z,71.24
2022-12-19T09:17:11.341Z,71.51
2022-12-19T09:19:38.212Z,71.07
2022-12-19T09:22:05.888Z,69.79
2022-12-19T09:24:33.854Z,69.55
2022-12-19T09:27:00.633Z,70.28
2022-12-19T09:29:32.221Z,69.27
2022-12-19T09:32:01.971Z,69.03
2022-12-19T09:34:38.145Z,69.79
2022-12-19T09:37:16.024Z,69.73
2022-12-19T09:39:45.660Z,68.83
2022-12-19T09:42:22.359Z,68.72
2022-12-19T09:45:08.297Z,66.96
2022-12-19T09:47:39.672Z,66.23
2022-12-19T09:50:30.726Z,66.85
2022-12-19T09:53:08.257Z,67.56
2022-12-19T09:55:38.101Z,66.83
2022-12-19T09:58:43.506Z,66.60
2022-12-19T10:01:19.614Z,66.05
2022-12-19T10:03:59.612Z,64.21
2022-12-19T10:07:21.277Z,63.77
2022-12-19T10:12:05.135Z,62.82
2022-12-19T10:12:44.448Z,62.05
2022-12-19T10:15:26.211Z,62.26
2022-12-19T10:18:20.582Z,61.91
2022-12-19T10:21:59.059Z,62.29
2022-12-19T10:24:23.804Z,61.32
2022-12-19T10:26:56.941Z,60.35
2022-12-19T10:30:01.281Z,58.21
2022-12-19T10:32:54.794Z,55.78
2022-12-19T10:35:22.587Z,55.04
2022-12-19T10:38:05.346Z,53.04
2022-12-19T10:40:37.612Z,51.80
2022-12-19T10:43:33.946Z,50.40
2022-12-19T10:46:13.395Z,51.14
2022-12-19T10:48:40.376Z,50.69
2022-12-19T10:51:13.684Z,48.53
2022-12-19T10:54:09.029Z,52.47
2022-12-19T10:56:37.957Z,52.24
2022-12-19T10:59:16.121Z,53.33
2022-12-19T11:01:43.438Z,53.09
2022-12-19T11:04:30.671Z,51.32
2022-12-19T11:07:03.708Z,52.03
2022-12-19T11:09:32.809Z,52.68
2022-12-19T11:18:15.275Z,53.19
2022-12-19T11:19:42.603Z,54.73
2022-12-19T11:29:17.150Z,55.82
2022-12-19T11:29:32.465Z,58.15
2022-12-19T11:29:42.762Z,56.63
2022-12-19T11:30:35.302Z,59.24
2022-12-19T11:31:52.977Z,59.19
2022-12-19T11:32:40.658Z,59.19
2022-12-19T11:35:18.508Z,60.67
2022-12-19T11:38:06.177Z,60.58
2022-12-19T11:40:34.040Z,60.35
2022-12-19T11:43:46.657Z,59.24
2022-12-19T11:46:41.430Z,59.01
2022-12-19T11:49:13.529Z,60.00
2022-12-19T11:51:45.855Z,60.75
2022-12-19T11:54:23.901Z,60.80
2022-12-19T11:56:51.113Z,60.88
2022-12-19T11:59:27.743Z,61.55
2022-12-19T12:02:25.635Z,61.50
2022-12-19T12:05:17.170Z,62.37
2022-12-19T12:11:07.983Z,62.09
2022-12-19T12:16:00.717Z,61.19
2022-12-19T12:23:43.105Z,60.35
2022-12-19T12:31:01.842Z,61.94
2022-12-19T12:31:08.710Z,62.73
2022-12-19T12:31:39.146Z,60.32
2022-12-19T12:31:39.618Z,60.03
2022-12-19T12:31:40.352Z,61.69
2022-12-19T12:35:48.609Z,59.98
2022-12-19T12:42:05.592Z,60.29
2022-12-19T12:44:41.102Z,60.03
2022-12-19T12:47:24.384Z,61.08
2022-12-19T12:50:13.870Z,61.05
2022-12-19T12:52:44.080Z,60.56
2022-12-19T12:55:30.234Z,61.07
2022-12-19T12:57:57.866Z,61.69
2022-12-19T13:00:26.933Z,62.52
2022-12-19T13:03:12.003Z,63.98
2022-12-19T13:05:40.893Z,64.23
2022-12-19T13:08:34.277Z,64.71
2022-12-19T13:11:03.492Z,65.19
2022-12-19T13:13:58.200Z,65.69
2022-12-19T13:16:43.316Z,65.84
2022-12-19T13:19:35.359Z,65.75
2022-12-19T13:22:05.627Z,66.36
2022-12-19T13:24:45.400Z,65.94
2022-12-19T13:27:21.575Z,66.43
2022-12-19T13:30:00.767Z,66.50
2022-12-19T13:32:32.621Z,66.76
2022-12-19T13:35:56.522Z,67.35
2022-12-19T13:40:01.585Z,67.62
2022-12-19T13:41:02.017Z,67.42
2022-12-19T13:43:47.862Z,67.62
2022-12-19T13:46:29.193Z,67.33
2022-12-19T13:49:00.439Z,67.77
2022-12-19T13:51:27.422Z,68.43
2022-12-19T13:53:59.559Z,68.91
2022-12-19T13:56:30.812Z,68.62
2022-12-19T13:59:00.732Z,69.00
2022-12-19T14:01:33.556Z,69.32
2022-12-19T14:04:07.894Z,69.27
2022-12-19T14:06:47.513Z,68.88
2022-12-19T14:11:26.874Z,68.94
2022-12-19T14:13:52.979Z,71.85
2022-12-19T14:15:41.227Z,70.89
2022-12-19T14:18:45.107Z,71.13
2022-12-19T14:22:04.607Z,68.59
2022-12-19T14:24:11.008Z,67.65
2022-12-19T14:28:17.737Z,68.36
2022-12-19T14:30:28.625Z,67.90
2022-12-19T14:33:44.255Z,68.89
2022-12-19T14:36:06.038Z,68.74
2022-12-19T14:39:20.914Z,69.57
2022-12-19T14:41:08.440Z,69.85
2022-12-19T14:43:58.694Z,70.40
2022-12-19T14:52:35.101Z,70.76
2022-12-19T14:54:10.728Z,71.52
2022-12-19T14:54:30.698Z,72.24
2022-12-19T14:56:13.076Z,72.79
2022-12-19T14:58:54.819Z,73.17
2022-12-19T15:01:26.051Z,73.29
2022-12-19T15:04:48.616Z,73.50
2022-12-19T15:07:23.471Z,73.93
2022-12-19T15:11:06.146Z,74.09
2022-12-19T15:14:53.151Z,74.09
2022-12-19T15:16:26.959Z,74.15
2022-12-19T15:18:57.380Z,73.98
2022-12-19T15:21:24.933Z,73.62
2022-12-19T15:23:52.232Z,74.12
2022-12-19T15:26:27.358Z,74.79
2022-12-19T15:28:56.411Z,74.76
2022-12-19T15:31:30.290Z,75.31
2022-12-19T15:36:45.440Z,75.29
2022-12-19T15:39:15.143Z,75.45
2022-12-19T15:41:42.619Z,75.26
2022-12-19T15:44:19.315Z,75.01
2022-12-19T15:46:49.192Z,75.19
2022-12-19T15:49:19.162Z,75.61
2022-12-19T15:51:47.281Z,75.34
2022-12-19T15:54:47.242Z,75.44
2022-12-19T15:57:01.938Z,75.60
2022-12-19T15:59:37.464Z,75.47
2022-12-19T16:02:15.990Z,75.51
2022-12-19T16:04:44.187Z,75.36
2022-12-19T16:07:19.500Z,74.96
2022-12-19T16:09:47.173Z,75.43
2022-12-19T16:12:22.467Z,75.52
2022-12-19T16:14:56.343Z,75.48
2022-12-19T16:17:25.420Z,75.03
2022-12-19T16:19:52.669Z,75.08
2022-12-19T16:22:23.179Z,75.41
2022-12-19T16:24:51.470Z,75.34
2022-12-19T16:27:21.476Z,75.29
2022-12-19T16:29:48.721Z,75.25
2022-12-19T16:32:16.101Z,74.99
2022-12-19T16:34:43.299Z,74.66
2022-12-19T16:37:10.318Z,74.53
2022-12-19T16:39:37.434Z,74.34
2022-12-19T16:42:05.957Z,75.08
2022-12-19T16:44:34.430Z,75.21
2022-12-19T16:47:01.333Z,75.16
2022-12-19T16:49:28.627Z,75.03
2022-12-19T16:51:55.486Z,74.86
2022-12-19T16:54:22.691Z,75.32
2022-12-19T16:56:52.313Z,74.89
2022-12-19T16:59:22.126Z,74.55
2022-12-19T17:01:49.645Z,74.26
2022-12-19T17:04:22.830Z,74.43
2022-12-19T17:06:52.464Z,74.07
2022-12-19T17:09:23.527Z,74.12
2022-12-19T17:11:53.742Z,74.30
2022-12-19T17:14:26.570Z,74.71
2022-12-19T17:16:55.615Z,74.47
2022-12-19T17:19:36.978Z,74.58
2022-12-19T17:22:13.138Z,74.53
2022-12-19T17:24:40.574Z,73.90
2022-12-19T17:27:08.224Z,74.21
2022-12-19T17:29:35.226Z,73.74
2022-12-19T17:32:02.798Z,73.79
2022-12-19T17:34:32.226Z,74.19
2022-12-19T17:37:00.747Z,73.48
2022-12-19T17:39:29.684Z,73.57
2022-12-19T17:41:59.751Z,73.66
2022-12-19T17:44:27.326Z,73.67
2022-12-19T17:46:54.756Z,73.47
2022-12-19T17:49:27.327Z,73.39
2022-12-19T17:51:55.156Z,73.27
2022-12-19T17:54:23.483Z,73.26
2022-12-19T17:56:51.471Z,72.81
2022-12-19T17:59:19.429Z,73.45
2022-12-19T18:01:47.525Z,73.40
2022-12-19T18:04:17.343Z,73.51
2022-12-19T18:06:45.285Z,73.34
2022-12-19T18:09:20.347Z,72.85
2022-12-19T18:11:48.765Z,73.05
2022-12-19T18:14:16.606Z,73.19
2022-12-19T18:16:44.766Z,72.76
2022-12-19T18:19:19.727Z,73.44
2022-12-19T18:21:47.186Z,72.80
2022-12-19T18:24:18.182Z,72.66
2022-12-19T18:26:45.634Z,72.65
2022-12-19T18:29:13.563Z,72.86
2022-12-19T18:31:48.190Z,73.00
2022-12-19T18:34:20.181Z,73.52
2022-12-19T18:36:47.616Z,72.98
2022-12-19T18:39:28.628Z,73.34
2022-12-19T18:41:56.109Z,73.62
2022-12-19T18:44:23.649Z,73.29
2022-12-19T18:46:52.015Z,73.54
2022-12-19T18:49:19.835Z,73.29
2022-12-19T18:51:47.324Z,73.21
2022-12-19T18:54:18.520Z,73.21
2022-12-19T18:56:46.446Z,73.44
2022-12-19T18:59:14.203Z,73.39
2022-12-19T19:01:44.815Z,73.53
2022-12-19T19:04:14.635Z,73.61
2022-12-19T19:06:48.538Z,73.66
2022-12-19T19:09:18.525Z,73.35
2022-12-19T19:11:45.915Z,73.31
2022-12-19T19:14:13.377Z,73.64
2022-12-19T19:16:40.817Z,73.30
2022-12-19T19:19:11.217Z,73.36
2022-12-19T19:21:39.220Z,73.46
2022-12-19T19:24:09.528Z,74.33
2022-12-19T19:26:37.126Z,74.08
2022-12-19T19:29:05.545Z,74.56
2022-12-19T19:31:35.851Z,73.99
2022-12-19T19:34:13.227Z,74.04
2022-12-19T19:36:42.806Z,74.11
2022-12-19T19:39:11.237Z,73.88
2022-12-19T19:41:38.667Z,73.97
2022-12-19T19:44:05.927Z,74.81
2022-12-19T19:46:33.315Z,75.32
2022-12-19T19:49:00.553Z,75.76
2022-12-19T19:51:29.255Z,75.07
2022-12-19T19:53:56.668Z,75.13
2022-12-19T19:56:24.400Z,74.92
2022-12-19T19:58:52.567Z,74.75
2022-12-19T20:01:20.167Z,75.07
2022-12-19T20:03:48.713Z,74.84
2022-12-19T20:06:16.665Z,74.52
2022-12-19T20:08:43.928Z,74.51
2022-12-19T20:11:11.236Z,74.49
2022-12-19T20:13:38.696Z,74.33
2022-12-19T20:16:10.472Z,74.14
2022-12-19T20:18:40.064Z,73.62
2022-12-19T20:21:12.681Z,73.94
2022-12-19T20:23:42.345Z,73.78
2022-12-19T20:26:11.699Z,73.95
2022-12-19T20:28:47.851Z,74.30
2022-12-19T20:31:16.843Z,74.18
2022-12-19T20:33:45.373Z,73.80
2022-12-19T20:36:13.868Z,73.90
2022-12-19T20:38:41.308Z,73.49
2022-12-19T20:41:09.080Z,73.43
2022-12-19T20:43:38.455Z,73.35
2022-12-19T20:46:14.018Z,73.39
2022-12-19T20:48:41.696Z,73.20
2022-12-19T20:51:10.127Z,73.10
2022-12-19T20:53:38.613Z,73.54
2022-12-19T20:56:07.085Z,73.49
2022-12-19T20:58:36.381Z,73.40
2022-12-19T21:01:12.137Z,73.47
2022-12-19T21:03:40.032Z,73.65
2022-12-19T21:06:09.172Z,73.78
2022-12-19T21:08:36.911Z,73.76
2022-12-19T21:11:05.753Z,73.54
2022-12-19T21:13:33.537Z,73.42
2022-12-19T21:16:07.417Z,73.57
2022-12-19T21:18:36.861Z,73.71
2022-12-19T21:21:04.727Z,74.04
2022-12-19T21:23:32.417Z,74.42
2022-12-19T21:26:01.482Z,74.30
2022-12-19T21:28:29.476Z,74.13
2022-12-19T21:31:06.945Z,74.10
2022-12-19T21:33:34.464Z,74.30
2022-12-19T21:36:09.864Z,73.99
2022-12-19T21:38:37.829Z,73.80
2022-12-19T21:41:06.116Z,74.33
2022-12-19T21:43:36.975Z,73.95
2022-12-19T21:46:14.361Z,73.91
2022-12-19T21:48:43.972Z,74.37
2022-12-19T21:51:12.763Z,74.25
2022-12-19T21:53:40.638Z,74.09
2022-12-19T21:56:26.640Z,73.63
2022-12-19T21:58:59.207Z,73.55
2022-12-19T22:01:27.982Z,73.50
2022-12-19T22:04:06.850Z,73.83
2022-12-19T22:06:35.337Z,73.96
2022-12-19T22:09:04.324Z,73.96
2022-12-19T22:11:31.877Z,74.22
2022-12-19T22:14:01.074Z,74.58
2022-12-19T22:16:29.444Z,74.44
2022-12-19T22:18:56.991Z,74.35
2022-12-19T22:21:25.432Z,74.31
2022-12-19T22:23:53.117Z,74.65
2022-12-19T22:26:22.883Z,74.10
2022-12-19T22:28:53.121Z,74.06
2022-12-19T22:31:31.707Z,74.32
2022-12-19T22:34:03.088Z,74.51
2022-12-19T22:36:32.462Z,74.41
2022-12-19T22:39:01.785Z,74.45
2022-12-19T22:41:28.986Z,74.59
2022-12-19T22:43:56.794Z,74.96
2022-12-19T22:46:30.043Z,74.75
2022-12-19T22:48:58.999Z,74.56
2022-12-19T22:51:27.502Z,74.90
2022-12-19T22:53:56.795Z,75.43
2022-12-19T22:56:26.990Z,75.00
2022-12-19T22:58:56.671Z,75.49
2022-12-19T23:01:26.894Z,75.64
2022-12-19T23:03:55.889Z,75.89
2022-12-19T23:06:25.616Z,75.89
2022-12-19T23:08:53.602Z,76.23
2022-12-19T23:11:25.512Z,76.37
2022-12-19T23:13:52.909Z,76.38
2022-12-19T23:16:20.727Z,76.78
2022-12-19T23:18:48.259Z,77.12
2022-12-19T23:21:18.818Z,76.67
2022-12-19T23:23:47.260Z,76.89
2022-12-19T23:26:17.527Z,76.87
2022-12-19T23:28:45.533Z,76.99
2022-12-19T23:31:13.911Z,77.03
2022-12-19T23:33:41.709Z,76.96
2022-12-19T23:36:10.527Z,77.13
2022-12-19T23:38:37.925Z,77.03
2022-12-19T23:41:07.731Z,76.90
2022-12-19T23:43:36.589Z,76.99
2022-12-19T23:46:13.986Z,77.05
2022-12-19T23:48:42.157Z,77.22
2022-12-19T23:51:12.929Z,76.95
2022-12-19T23:53:40.541Z,77.26
2022-12-19T23:56:12.713Z,77.35
2022-12-19T23:58:40.735Z,77.27
